Time;durP1;ratioP1;P1;durP2;ratioP2;P2;SDS_P1;SDS_P2;PMS_P1;PMS_P2;Temp;Humidity;BMP_temperature;BMP_pressure;BME280_temperature;BME280_humidity;BME280_pressure;Samples;Min_cycle;Max_cycle;Signal;HPM_P1;HPM_P2
2022/01/23 00:01:25;;;;;;;21.00;8.10;;;6.00;96.80;;;;;;5099033;27;20101;-81
2022/01/23 00:03:51;;;;;;;19.23;7.47;;;5.90;96.80;;;;;;5082515;28;20479;-81
2022/01/23 00:06:17;;;;;;;18.20;7.55;;;6.00;96.90;;;;;;5099493;27;20034;-81
2022/01/23 00:08:42;;;;;;;17.73;7.50;;;6.00;96.80;;;;;;5099289;28;20493;-81
2022/01/23 00:11:08;;;;;;;17.38;7.43;;;6.00;96.90;;;;;;5099085;28;20479;-81
2022/01/23 00:19:13;;;;;;;20.73;7.63;;;5.90;97.00;;;;;;5101800;28;20047;-81
2022/01/23 00:21:40;;;;;;;17.10;8.05;;;5.90;97.00;;;;;;5098875;28;20075;-81
2022/01/23 00:32:04;;;;;;;20.40;8.02;;;5.90;97.10;;;;;;5101307;28;20043;-81
2022/01/23 00:34:29;;;;;;;19.83;8.07;;;5.90;97.10;;;;;;5115672;28;20051;-81
2022/01/23 00:36:55;;;;;;;17.92;7.90;;;5.90;97.10;;;;;;5098539;28;20039;-81
2022/01/23 00:39:21;;;;;;;17.42;8.23;;;5.90;97.20;;;;;;5116068;28;20039;-81
2022/01/23 00:41:46;;;;;;;23.70;8.48;;;5.90;97.20;;;;;;5099602;28;20042;-81
2022/01/23 00:44:12;;;;;;;25.23;8.45;;;5.90;97.20;;;;;;5115808;28;20039;-81
2022/01/23 00:46:40;;;;;;;16.52;7.78;;;5.80;97.20;;;;;;5082200;28;20472;-81
2022/01/23 00:51:34;;;;;;;16.13;7.00;;;5.80;97.20;;;;;;5115606;28;20045;-81
2022/01/23 00:54:05;;;;;;;13.35;6.13;;;5.80;97.20;;;;;;5098845;28;20376;-81
2022/01/23 00:56:32;;;;;;;11.77;5.25;;;5.80;97.20;;;;;;5098774;28;20051;-81
2022/01/23 00:58:59;;;;;;;11.10;5.90;;;5.70;97.30;;;;;;5115883;28;20403;-81
2022/01/23 01:01:25;;;;;;;16.67;5.97;;;5.70;97.30;;;;;;5098622;28;20096;-81
2022/01/23 01:03:51;;;;;;;10.55;5.70;;;5.70;97.40;;;;;;5081369;28;20047;-80
2022/01/23 01:06:18;;;;;;;8.90;4.75;;;5.70;97.40;;;;;;5115317;28;20526;-81
2022/01/23 01:08:46;;;;;;;9.73;5.00;;;5.70;97.40;;;;;;5081445;28;20395;-81
2022/01/23 01:16:55;;;;;;;15.27;5.72;;;5.70;97.40;;;;;;5115761;28;20046;-81
2022/01/23 01:33:14;;;;;;;29.15;8.55;;;5.60;97.30;;;;;;5102066;27;20035;-81
2022/01/23 01:35:47;;;;;;;21.73;8.02;;;5.60;97.40;;;;;;5101935;27;20042;-81
2022/01/23 01:38:13;;;;;;;15.88;7.10;;;5.60;97.30;;;;;;5118759;27;20043;-81
2022/01/23 01:40:39;;;;;;;16.80;7.03;;;5.60;97.40;;;;;;5101608;27;20045;-80
2022/01/23 01:43:05;;;;;;;15.77;6.05;;;5.60;97.50;;;;;;5101712;27;20039;-81
2022/01/23 01:45:32;;;;;;;13.77;7.03;;;5.60;97.50;;;;;;5101632;27;20039;-80
2022/01/23 01:48:00;;;;;;;14.90;6.78;;;5.60;97.50;;;;;;5118930;27;20368;-81
2022/01/23 01:50:30;;;;;;;13.75;7.00;;;5.60;97.40;;;;;;5101599;27;20446;-80
2022/01/23 01:52:56;;;;;;;16.77;6.78;;;5.60;97.40;;;;;;5101680;27;20364;-81
2022/01/23 01:55:29;;;;;;;13.73;6.90;;;5.60;97.50;;;;;;5118100;27;20092;-81
2022/01/23 01:58:02;;;;;;;11.07;6.30;;;5.60;97.50;;;;;;5102186;27;20046;-81
2022/01/23 02:08:24;;;;;;;17.58;6.40;;;5.60;97.60;;;;;;5084059;28;20466;-81
2022/01/23 02:10:56;;;;;;;16.35;6.15;;;5.50;97.60;;;;;;5114562;28;20051;-80
2022/01/23 02:13:29;;;;;;;13.90;5.57;;;5.50;97.60;;;;;;5114665;28;20047;-81
2022/01/23 02:51:13;;;;;;;8.35;3.65;;;5.50;97.70;;;;;;5099430;28;20050;-81
2022/01/23 02:56:19;;;;;;;10.77;3.78;;;5.50;97.70;;;;;;5097078;28;20051;-81
2022/01/23 02:58:57;;;;;;;8.52;4.00;;;5.50;97.70;;;;;;5113845;28;20043;-81
2022/01/23 03:01:27;;;;;;;7.80;3.30;;;5.50;97.70;;;;;;5096484;28;20035;-81
2022/01/23 03:04:00;;;;;;;9.43;3.60;;;5.50;97.70;;;;;;5097118;28;20048;-81
2022/01/23 03:13:03;;;;;;;14.75;4.32;;;5.50;97.80;;;;;;5097598;28;20134;-81
2022/01/23 03:15:10;;;;;;;9.65;4.03;;;5.50;97.80;;;;;;5101510;28;20047;-81
2022/01/23 03:29:20;;;;;;;9.63;3.85;;;5.40;97.90;;;;;;5099148;28;20364;-81
2022/01/23 03:31:26;;;;;;;7.80;3.65;;;5.40;97.90;;;;;;5091571;28;20066;-81
2022/01/23 03:33:53;;;;;;;8.93;3.85;;;5.40;97.90;;;;;;5096642;28;20117;-81
2022/01/23 03:36:19;;;;;;;11.02;4.32;;;5.40;97.90;;;;;;5113097;28;20049;-81
2022/01/23 03:38:45;;;;;;;10.93;4.65;;;5.50;98.00;;;;;;5096204;28;20044;-81
2022/01/23 03:41:12;;;;;;;10.40;4.53;;;5.50;98.00;;;;;;5113124;28;20040;-81
2022/01/23 03:43:39;;;;;;;9.55;4.30;;;5.40;98.00;;;;;;5079295;28;20122;-81
2022/01/23 03:51:16;;;;;;;9.68;4.50;;;5.40;98.00;;;;;;5095926;28;20048;-80
2022/01/23 03:53:42;;;;;;;10.25;5.13;;;5.40;98.00;;;;;;5113112;28;20046;-81
2022/01/23 03:56:08;;;;;;;10.23;5.35;;;5.30;98.10;;;;;;5095697;28;20609;-80
2022/01/23 03:58:34;;;;;;;12.48;5.00;;;5.30;98.10;;;;;;5095884;28;20054;-81
2022/01/23 04:01:00;;;;;;;9.32;5.03;;;5.30;98.10;;;;;;5112460;28;20036;-80
2022/01/23 04:03:27;;;;;;;12.57;4.82;;;5.30;98.10;;;;;;5112641;28;20135;-80
2022/01/23 04:05:52;;;;;;;12.43;4.97;;;5.30;98.10;;;;;;5078908;28;20036;-81
2022/01/23 04:08:19;;;;;;;11.52;5.70;;;5.30;98.10;;;;;;5096741;28;20044;-80
2022/01/23 04:10:45;;;;;;;16.83;5.53;;;5.30;98.20;;;;;;5112591;28;20040;-81
2022/01/23 04:13:21;;;;;;;16.15;6.05;;;5.30;98.10;;;;;;5095989;28;20107;-81
2022/01/23 04:32:15;;;;;;;19.30;6.90;;;5.30;98.20;;;;;;5112706;28;20102;-80
2022/01/23 04:45:29;;;;;;;10.65;5.75;;;5.20;98.30;;;;;;5097983;28;20047;-80
2022/01/23 05:06:41;;;;;;;12.73;7.38;;;5.10;98.40;;;;;;5115956;28;20040;-80
2022/01/23 05:09:08;;;;;;;11.70;7.28;;;5.10;98.40;;;;;;5116082;28;20040;-80
2022/01/23 05:11:36;;;;;;;9.95;5.78;;;5.10;98.40;;;;;;5115694;28;20051;-79
2022/01/23 05:14:03;;;;;;;12.30;6.68;;;5.10;98.30;;;;;;5115723;28;20036;-80
2022/01/23 05:16:31;;;;;;;11.55;6.28;;;5.10;98.30;;;;;;5115890;28;20074;-80
2022/01/23 05:18:58;;;;;;;11.00;6.25;;;5.10;98.30;;;;;;5115717;28;20126;-80
2022/01/23 05:23:50;;;;;;;10.40;5.63;;;5.10;98.30;;;;;;5098755;28;20051;-81
2022/01/23 05:26:15;;;;;;;9.20;4.95;;;5.10;98.30;;;;;;5098670;28;20576;-80
2022/01/23 05:28:41;;;;;;;10.52;5.63;;;5.10;98.30;;;;;;5115392;28;20165;-80
2022/01/23 05:31:07;;;;;;;5.55;4.00;;;5.10;98.30;;;;;;5098192;28;20446;-80
2022/01/23 05:33:32;;;;;;;6.72;4.10;;;5.10;98.40;;;;;;5098415;28;20039;-80
2022/01/23 05:35:58;;;;;;;6.47;3.80;;;5.10;98.30;;;;;;5115709;28;20043;-80
2022/01/23 05:38:24;;;;;;;6.22;3.65;;;5.10;98.40;;;;;;5098429;28;20108;-80
2022/01/23 05:40:56;;;;;;;5.75;3.45;;;5.10;98.30;;;;;;5115230;28;20040;-80
2022/01/23 05:43:23;;;;;;;6.65;4.10;;;5.10;98.40;;;;;;5115403;28;20071;-80
2022/01/23 05:45:49;;;;;;;4.90;3.17;;;5.10;98.30;;;;;;5098340;28;20088;-80
2022/01/23 05:48:15;;;;;;;5.93;3.45;;;5.10;98.30;;;;;;5098215;28;20043;-80
2022/01/23 05:50:41;;;;;;;16.10;4.03;;;5.10;98.30;;;;;;5097941;28;20553;-80
2022/01/23 05:53:07;;;;;;;6.85;3.92;;;5.20;98.30;;;;;;5115159;28;20040;-80
2022/01/23 05:55:32;;;;;;;6.28;3.90;;;5.10;98.30;;;;;;5115259;28;20043;-80
2022/01/23 05:57:58;;;;;;;6.70;3.70;;;5.10;98.30;;;;;;5114902;28;20119;-80
2022/01/23 06:00:24;;;;;;;5.20;3.85;;;5.10;98.30;;;;;;5097899;28;20452;-80
2022/01/23 06:02:49;;;;;;;5.68;3.47;;;5.10;98.40;;;;;;5097363;28;20059;-80
2022/01/23 06:05:15;;;;;;;5.88;3.53;;;5.10;98.40;;;;;;5097855;28;20069;-80
2022/01/23 06:07:42;;;;;;;5.85;3.97;;;5.10;98.40;;;;;;5097656;28;20036;-80
2022/01/23 06:10:18;;;;;;;7.45;3.42;;;5.10;98.40;;;;;;5097259;28;20123;-80
2022/01/23 06:12:44;;;;;;;6.72;3.58;;;5.10;98.40;;;;;;5097587;28;20039;-79
2022/01/23 06:15:10;;;;;;;6.20;3.90;;;5.10;98.40;;;;;;5097880;28;20039;-80
2022/01/23 06:17:36;;;;;;;6.10;3.55;;;5.10;98.40;;;;;;5097805;28;20047;-80
2022/01/23 06:20:02;;;;;;;4.97;3.80;;;5.10;98.30;;;;;;5097480;28;20035;-80
2022/01/23 06:22:28;;;;;;;6.22;4.20;;;5.10;98.40;;;;;;5097324;28;20122;-80
2022/01/23 06:24:54;;;;;;;7.28;3.85;;;5.10;98.40;;;;;;5080830;28;20122;-79
2022/01/23 06:27:19;;;;;;;5.55;3.40;;;5.10;98.40;;;;;;5096509;28;20044;-79
2022/01/23 06:29:45;;;;;;;6.20;3.58;;;5.10;98.40;;;;;;5114153;28;20035;-79
2022/01/23 06:32:12;;;;;;;7.43;3.47;;;5.20;98.30;;;;;;5114140;28;20118;-80
2022/01/23 06:34:38;;;;;;;7.32;4.28;;;5.20;98.30;;;;;;5097100;28;20035;-80
2022/01/23 06:37:05;;;;;;;7.28;4.20;;;5.20;98.40;;;;;;5114492;28;20364;-79
2022/01/23 06:39:31;;;;;;;6.32;4.15;;;5.20;98.40;;;;;;5114255;28;20054;-79
2022/01/23 06:41:57;;;;;;;6.97;4.95;;;5.20;98.30;;;;;;5114070;28;20071;-79
2022/01/23 06:44:23;;;;;;;9.57;4.93;;;5.20;98.30;;;;;;5114036;28;20043;-79
2022/01/23 06:46:49;;;;;;;6.78;4.45;;;5.20;98.40;;;;;;5114364;28;20031;-79
2022/01/23 06:49:15;;;;;;;9.27;4.93;;;5.20;98.40;;;;;;5097160;28;20380;-80
2022/01/23 06:51:42;;;;;;;7.72;4.80;;;5.20;98.40;;;;;;5096888;28;20510;-80
2022/01/23 06:54:09;;;;;;;9.43;4.60;;;5.20;98.40;;;;;;5097137;28;20047;-81
2022/01/23 06:56:35;;;;;;;7.68;5.28;;;5.20;98.40;;;;;;5113837;28;20047;-79
2022/01/23 06:59:01;;;;;;;7.13;4.80;;;5.20;98.40;;;;;;5096869;28;20044;-79
2022/01/23 07:01:26;;;;;;;8.30;4.88;;;5.20;98.40;;;;;;5113587;28;20047;-79
2022/01/23 07:03:52;;;;;;;9.07;5.15;;;5.20;98.40;;;;;;5113554;28;20105;-79
2022/01/23 07:06:18;;;;;;;8.50;5.18;;;5.20;98.40;;;;;;5096756;28;20044;-79
2022/01/23 07:08:44;;;;;;;6.43;4.20;;;5.20;98.40;;;;;;5096872;28;20137;-79
2022/01/23 07:11:09;;;;;;;8.50;5.03;;;5.20;98.40;;;;;;5113500;28;20039;-79
2022/01/23 07:13:35;;;;;;;7.57;5.07;;;5.30;98.50;;;;;;5096566;28;20047;-79
2022/01/23 07:16:02;;;;;;;7.15;4.50;;;5.20;98.50;;;;;;5096664;28;20379;-79
2022/01/23 07:18:28;;;;;;;9.85;5.75;;;5.30;98.40;;;;;;5096643;28;20492;-79
2022/01/23 07:20:54;;;;;;;9.63;5.13;;;5.20;98.40;;;;;;5113236;28;20035;-79
2022/01/23 07:23:21;;;;;;;7.95;5.30;;;5.30;98.40;;;;;;5095637;28;20043;-79
2022/01/23 07:25:47;;;;;;;10.30;5.40;;;5.20;98.30;;;;;;5096586;28;20050;-79
2022/01/23 07:28:16;;;;;;;14.20;7.63;;;5.20;98.40;;;;;;5113149;28;20551;-79
2022/01/23 07:30:54;;;;;;;9.95;6.50;;;5.20;98.40;;;;;;5095934;28;20044;-79
2022/01/23 07:33:20;;;;;;;11.07;5.82;;;5.20;98.50;;;;;;5096279;28;20035;-79
2022/01/23 07:35:46;;;;;;;12.75;6.43;;;5.30;98.50;;;;;;5062251;28;20376;-79
2022/01/23 07:38:16;;;;;;;11.57;6.28;;;5.20;98.50;;;;;;5095771;28;20042;-79
2022/01/23 07:40:48;;;;;;;16.33;7.03;;;5.20;98.50;;;;;;5095880;28;20139;-79
2022/01/23 07:43:14;;;;;;;16.52;7.40;;;5.20;98.50;;;;;;5095743;28;20040;-79
2022/01/23 07:45:40;;;;;;;14.02;8.18;;;5.20;98.40;;;;;;5112732;28;20042;-78
2022/01/23 07:48:07;;;;;;;11.43;7.25;;;5.20;98.50;;;;;;5112881;28;20387;-79
2022/01/23 07:50:33;;;;;;;15.65;8.30;;;5.20;98.50;;;;;;5095929;28;20067;-79
2022/01/23 07:52:59;;;;;;;14.85;8.57;;;5.30;98.60;;;;;;5112767;28;20032;-78
2022/01/23 07:55:25;;;;;;;16.00;9.63;;;5.30;98.40;;;;;;5113028;28;20055;-78
2022/01/23 07:57:52;;;;;;;13.93;8.88;;;5.30;98.50;;;;;;5112934;28;20479;-79
2022/01/23 08:00:18;;;;;;;15.77;8.02;;;5.20;98.50;;;;;;5113390;28;20043;-79
2022/01/23 08:02:45;;;;;;;12.43;7.47;;;5.30;98.50;;;;;;5112452;28;20063;-79
2022/01/23 08:05:11;;;;;;;14.45;8.38;;;5.30;98.50;;;;;;5112518;28;20043;-79
2022/01/23 08:07:37;;;;;;;12.52;7.47;;;5.30;98.50;;;;;;5112925;28;20035;-79
2022/01/23 08:10:06;;;;;;;11.00;7.40;;;5.30;98.70;;;;;;5112692;28;20046;-79
2022/01/23 08:12:33;;;;;;;12.57;7.45;;;5.30;98.60;;;;;;5112765;28;20043;-79
2022/01/23 08:14:59;;;;;;;13.90;7.47;;;5.40;98.60;;;;;;5095996;28;20043;-79
2022/01/23 08:17:26;;;;;;;12.32;6.28;;;5.40;98.60;;;;;;5112614;28;20047;-79
2022/01/23 08:19:53;;;;;;;13.93;7.72;;;5.40;98.60;;;;;;5111820;28;20047;-79
2022/01/23 08:22:22;;;;;;;14.32;8.57;;;5.40;98.60;;;;;;5111393;28;20047;-79
2022/01/23 08:24:49;;;;;;;16.38;10.18;;;5.40;98.50;;;;;;5111800;28;20036;-79
2022/01/23 08:27:15;;;;;;;17.48;8.85;;;5.50;98.40;;;;;;5095344;28;20052;-80
2022/01/23 08:29:41;;;;;;;17.23;9.32;;;5.50;98.50;;;;;;5094708;28;20042;-79
2022/01/23 08:32:08;;;;;;;17.27;9.25;;;5.40;98.50;;;;;;5112146;28;20035;-80
2022/01/23 08:34:35;;;;;;;15.70;8.43;;;5.50;98.60;;;;;;5115204;28;20126;-80
2022/01/23 08:37:05;;;;;;;19.38;9.07;;;5.50;98.60;;;;;;5099720;28;20055;-80
2022/01/23 08:39:34;;;;;;;17.92;9.60;;;5.50;98.70;;;;;;5100467;28;20150;-80
2022/01/23 08:42:00;;;;;;;16.05;8.75;;;5.50;98.60;;;;;;5100050;28;20448;-80
2022/01/23 08:44:28;;;;;;;18.17;9.32;;;5.50;98.60;;;;;;5083182;28;20040;-79
2022/01/23 08:46:54;;;;;;;19.02;9.40;;;5.50;98.50;;;;;;5116652;28;20079;-80
2022/01/23 08:49:23;;;;;;;20.30;12.32;;;5.50;98.50;;;;;;5082271;28;20101;-78
2022/01/23 08:51:50;;;;;;;21.42;10.63;;;5.50;98.50;;;;;;5099117;28;20047;-79
2022/01/23 08:54:16;;;;;;;20.80;11.40;;;5.60;98.60;;;;;;5099458;28;20055;-79
2022/01/23 08:56:42;;;;;;;30.60;19.23;;;5.60;98.60;;;;;;5116310;28;20533;-79
2022/01/23 08:59:08;;;;;;;21.27;11.02;;;5.50;98.60;;;;;;5098914;28;20088;-79
2022/01/23 09:01:35;;;;;;;19.27;9.43;;;5.60;98.60;;;;;;5099168;28;20035;-79
2022/01/23 09:04:05;;;;;;;20.42;10.27;;;5.60;98.60;;;;;;5115696;28;20105;-79
2022/01/23 09:06:32;;;;;;;18.83;9.63;;;5.60;98.70;;;;;;5115983;28;20036;-79
2022/01/23 09:09:00;;;;;;;17.35;9.45;;;5.60;98.70;;;;;;5115900;28;20039;-80
2022/01/23 09:14:07;;;;;;;20.27;8.93;;;5.60;98.80;;;;;;5115793;28;20047;-80
2022/01/23 09:16:53;;;;;;;18.92;10.38;;;5.70;98.80;;;;;;5115513;28;20043;-80
2022/01/23 09:19:21;;;;;;;19.42;7.88;;;5.70;98.70;;;;;;5115265;28;20519;-80
2022/01/23 09:21:51;;;;;;;21.23;8.88;;;5.70;98.70;;;;;;5097623;28;20036;-80
2022/01/23 09:24:19;;;;;;;18.45;8.35;;;5.70;98.70;;;;;;5114927;28;20079;-79
2022/01/23 09:26:52;;;;;;;19.20;8.90;;;5.70;98.70;;;;;;5115636;28;20123;-79
2022/01/23 09:29:25;;;;;;;19.00;7.13;;;5.80;98.60;;;;;;5115643;28;20039;-79
2022/01/23 09:31:52;;;;;;;13.30;6.80;;;5.80;98.60;;;;;;5112066;28;20046;-80
2022/01/23 09:34:22;;;;;;;19.05;11.60;;;5.80;98.60;;;;;;5107993;28;20441;-80
2022/01/23 09:36:49;;;;;;;14.40;8.10;;;5.80;98.60;;;;;;5108393;28;20062;-80
2022/01/23 09:39:16;;;;;;;18.45;8.65;;;5.90;98.40;;;;;;5092638;28;20504;-80
2022/01/23 09:41:48;;;;;;;18.23;9.15;;;5.90;98.30;;;;;;5102279;28;20452;-80
2022/01/23 09:44:17;;;;;;;15.27;8.25;;;5.90;98.20;;;;;;5109171;28;20039;-80
2022/01/23 09:46:45;;;;;;;15.45;7.63;;;5.90;98.30;;;;;;5091545;28;20112;-80
2022/01/23 09:49:14;;;;;;;15.63;7.75;;;5.90;98.30;;;;;;5109110;28;20479;-80
2022/01/23 09:51:43;;;;;;;17.92;8.23;;;5.90;98.40;;;;;;5120232;27;20040;-82
2022/01/23 09:54:14;;;;;;;15.85;7.22;;;5.90;98.30;;;;;;5075052;28;20066;-80
2022/01/23 09:56:42;;;;;;;15.63;8.52;;;5.90;98.40;;;;;;5091688;28;20055;-81
2022/01/23 09:59:11;;;;;;;18.70;8.57;;;5.80;98.40;;;;;;5074126;28;20108;-83
2022/01/23 10:01:40;;;;;;;14.30;7.95;;;5.80;98.40;;;;;;5107420;28;20052;-82
2022/01/23 10:04:06;;;;;;;17.75;8.82;;;5.90;98.40;;;;;;5091266;28;20056;-83
2022/01/23 10:06:32;;;;;;;13.25;8.40;;;5.90;98.40;;;;;;5083520;28;20119;-81
2022/01/23 10:08:59;;;;;;;14.35;8.88;;;6.00;98.40;;;;;;5108432;28;20130;-82
2022/01/23 10:11:29;;;;;;;21.10;10.10;;;6.00;98.40;;;;;;5107573;28;20604;-82
2022/01/23 10:13:55;;;;;;;14.90;7.82;;;6.00;98.30;;;;;;5106703;28;20047;-81
2022/01/23 10:16:21;;;;;;;18.98;8.23;;;6.00;98.30;;;;;;5108507;28;20039;-81
2022/01/23 10:18:48;;;;;;;17.80;9.52;;;6.00;98.30;;;;;;5108707;28;20085;-81
2022/01/23 10:21:14;;;;;;;14.85;8.00;;;6.00;98.20;;;;;;5073517;28;20043;-82
2022/01/23 10:23:40;;;;;;;17.30;8.90;;;6.10;98.30;;;;;;5066829;28;20049;-81
2022/01/23 10:26:06;;;;;;;16.77;8.85;;;6.10;98.20;;;;;;5108323;28;20047;-81
2022/01/23 10:28:34;;;;;;;12.98;7.70;;;6.10;98.20;;;;;;5090116;28;20059;-81
2022/01/23 10:31:05;;;;;;;14.52;8.73;;;6.10;98.20;;;;;;5080744;28;20073;-82
2022/01/23 10:33:34;;;;;;;15.90;8.98;;;6.10;98.10;;;;;;5072774;28;20090;-81
2022/01/23 10:36:15;;;;;;;15.85;9.63;;;6.10;98.10;;;;;;5107744;28;20051;-81
2022/01/23 10:38:49;;;;;;;13.88;8.93;;;6.10;98.10;;;;;;5108013;28;20051;-81
2022/01/23 10:49:51;;;;;;;14.40;9.20;;;6.10;98.00;;;;;;5107990;28;20055;-81
2022/01/23 10:52:38;;;;;;;17.55;8.73;;;6.10;97.90;;;;;;5106232;28;20047;-81
2022/01/23 10:55:25;;;;;;;15.82;8.90;;;6.10;97.90;;;;;;5107779;28;20084;-81
2022/01/23 10:57:54;;;;;;;14.43;7.60;;;6.10;97.90;;;;;;5107589;28;20472;-81
2022/01/23 11:00:33;;;;;;;15.98;9.25;;;6.10;97.90;;;;;;5090713;28;20051;-81
2022/01/23 11:03:11;;;;;;;17.10;8.85;;;6.10;97.90;;;;;;5101991;28;20071;-82
2022/01/23 11:05:41;;;;;;;13.40;8.02;;;6.10;97.80;;;;;;5095004;28;20044;-81
2022/01/23 11:08:20;;;;;;;15.68;8.23;;;6.10;97.90;;;;;;5081998;28;20044;-81
2022/01/23 11:10:53;;;;;;;12.45;8.15;;;6.10;97.80;;;;;;5081736;28;20437;-81
2022/01/23 11:19:27;;;;;;;18.08;7.60;;;6.20;97.90;;;;;;5094192;28;20127;-81
2022/01/23 11:21:54;;;;;;;13.32;7.55;;;6.30;97.90;;;;;;5077266;28;20051;-81
2022/01/23 11:24:34;;;;;;;12.75;6.47;;;6.20;97.80;;;;;;5092408;28;20071;-81
2022/01/23 11:27:02;;;;;;;12.82;7.18;;;6.30;97.80;;;;;;5094676;28;20122;-82
2022/01/23 11:29:28;;;;;;;13.43;7.18;;;6.30;97.90;;;;;;5063970;28;20039;-80
2022/01/23 11:31:53;;;;;;;16.95;6.55;;;6.30;97.90;;;;;;5078957;28;20127;-81
2022/01/23 11:34:21;;;;;;;10.70;7.20;;;6.40;97.80;;;;;;5080087;28;20466;-82
2022/01/23 11:36:48;;;;;;;12.70;7.22;;;6.40;97.70;;;;;;5064845;28;20545;-82
2022/01/23 11:39:28;;;;;;;12.05;6.50;;;6.40;97.70;;;;;;5095425;28;20487;-81
2022/01/23 11:56:43;;;;;;;14.43;6.30;;;6.50;97.30;;;;;;5091475;28;20063;-81
2022/01/23 11:59:20;;;;;;;11.85;6.68;;;6.50;97.40;;;;;;5078461;28;21149;-81
2022/01/23 12:02:09;;;;;;;9.18;5.78;;;6.50;97.30;;;;;;5095849;28;20051;-82
2022/01/23 12:04:35;;;;;;;11.00;5.30;;;6.50;97.30;;;;;;5092262;27;20112;-82
2022/01/23 12:07:14;;;;;;;14.90;5.90;;;6.50;97.20;;;;;;5109211;27;20151;-82
2022/01/23 12:09:43;;;;;;;10.65;5.70;;;6.50;97.20;;;;;;5109495;27;20614;-82
2022/01/23 12:17:20;;;;;;;10.32;5.07;;;6.60;97.30;;;;;;5092604;28;20462;-81
2022/01/23 12:19:58;;;;;;;8.05;5.32;;;6.60;97.20;;;;;;5109186;28;20054;-81
2022/01/23 12:22:34;;;;;;;9.35;5.82;;;6.60;97.00;;;;;;5088781;28;20039;-81
2022/01/23 12:25:23;;;;;;;10.48;5.75;;;6.70;97.10;;;;;;5092201;28;20077;-81
2022/01/23 12:28:20;;;;;;;9.88;6.03;;;6.60;96.80;;;;;;5108931;28;20536;-82
2022/01/23 12:30:47;;;;;;;12.40;5.78;;;6.60;96.90;;;;;;5094869;28;20474;-80
2022/01/23 12:33:36;;;;;;;9.55;5.63;;;6.70;96.80;;;;;;5115361;28;20176;-82
2022/01/23 12:36:19;;;;;;;8.30;5.40;;;6.70;96.70;;;;;;5114169;28;20039;-81
2022/01/23 12:38:51;;;;;;;8.85;5.90;;;6.80;96.70;;;;;;5112828;28;20487;-81
2022/01/23 12:41:25;;;;;;;11.55;6.35;;;6.80;96.60;;;;;;5097357;28;20035;-81
2022/01/23 12:43:59;;;;;;;9.32;5.72;;;6.80;96.60;;;;;;5115363;28;20054;-81
2022/01/23 12:46:40;;;;;;;8.95;5.40;;;6.70;96.30;;;;;;5098241;28;20122;-81
2022/01/23 12:49:23;;;;;;;8.32;5.97;;;6.70;96.00;;;;;;5115248;28;20039;-81
2022/01/23 12:51:53;;;;;;;9.38;5.80;;;6.70;96.10;;;;;;5115332;28;20043;-81
2022/01/23 12:54:22;;;;;;;10.82;5.97;;;6.70;95.90;;;;;;5098115;28;20491;-81
2022/01/23 12:56:50;;;;;;;9.30;5.95;;;6.80;96.10;;;;;;5115001;28;20046;-80
2022/01/23 12:59:25;;;;;;;10.15;6.32;;;6.80;95.70;;;;;;5098396;28;20051;-81
2022/01/23 13:01:58;;;;;;;7.82;5.55;;;6.80;95.90;;;;;;5114897;28;20047;-81
2022/01/23 13:04:31;;;;;;;8.05;5.32;;;6.80;96.00;;;;;;5114787;28;20059;-81
2022/01/23 13:07:05;;;;;;;7.55;4.75;;;6.80;96.00;;;;;;5098112;28;20116;-81
2022/01/23 13:12:12;;;;;;;9.90;5.10;;;6.80;95.80;;;;;;5115139;28;20101;-81
2022/01/23 13:31:52;;;;;;;10.18;6.40;;;6.80;94.60;;;;;;5118753;27;20485;-81
2022/01/23 13:34:40;;;;;;;9.90;6.18;;;6.80;95.00;;;;;;5118921;27;20443;-81
2022/01/23 13:37:18;;;;;;;10.80;6.60;;;6.80;94.50;;;;;;5118405;27;20039;-81
2022/01/23 13:39:47;;;;;;;9.02;6.40;;;6.80;94.30;;;;;;5101411;27;20134;-81
2022/01/23 13:48:11;;;;;;;9.55;5.72;;;6.80;94.90;;;;;;5084422;27;20039;-80
2022/01/23 13:59:27;;;;;;;10.32;5.68;;;6.80;94.60;;;;;;5118368;27;20394;-80
2022/01/23 14:02:17;;;;;;;11.13;6.97;;;6.80;94.50;;;;;;5101100;27;20047;-80
2022/01/23 14:04:50;;;;;;;9.65;5.57;;;6.70;94.10;;;;;;5117315;27;20067;-80
2022/01/23 14:07:27;;;;;;;11.30;5.45;;;6.70;94.10;;;;;;5120973;27;20046;-80
2022/01/23 14:09:55;;;;;;;12.25;6.50;;;6.70;94.30;;;;;;5117981;27;20043;-80
2022/01/23 14:12:22;;;;;;;9.20;5.47;;;6.70;94.60;;;;;;5118026;27;20076;-80
2022/01/23 14:15:00;;;;;;;8.93;5.40;;;6.70;94.60;;;;;;5083902;27;20039;-80
2022/01/23 14:17:28;;;;;;;12.52;6.63;;;6.70;94.50;;;;;;5101081;27;20085;-80
2022/01/23 14:20:07;;;;;;;10.07;6.28;;;6.70;94.80;;;;;;5084089;27;20126;-80
2022/01/23 14:22:36;;;;;;;9.35;5.55;;;6.70;94.50;;;;;;5117509;27;20077;-80
2022/01/23 14:25:25;;;;;;;6.60;4.80;;;6.70;94.70;;;;;;5100606;27;20100;-80
2022/01/23 14:28:06;;;;;;;9.15;5.07;;;6.70;94.70;;;;;;5117476;27;20100;-79
2022/01/23 14:30:40;;;;;;;9.75;5.00;;;6.60;94.70;;;;;;5117680;27;20043;-80
2022/01/23 14:33:22;;;;;;;8.93;4.72;;;6.70;94.80;;;;;;5100166;27;20043;-80
2022/01/23 14:35:49;;;;;;;8.73;4.50;;;6.70;94.70;;;;;;5117373;27;20049;-80
2022/01/23 14:38:20;;;;;;;9.85;5.50;;;6.60;94.70;;;;;;5117281;27;20065;-81
2022/01/23 14:41:07;;;;;;;11.80;6.45;;;6.60;94.70;;;;;;5117287;27;20065;-80
2022/01/23 14:43:41;;;;;;;9.27;5.45;;;6.50;95.00;;;;;;5117503;27;20463;-80
2022/01/23 14:46:10;;;;;;;9.15;5.20;;;6.50;95.00;;;;;;5100057;27;20051;-81
2022/01/23 14:48:41;;;;;;;7.72;4.80;;;6.50;95.00;;;;;;5117042;27;20035;-80
2022/01/23 14:51:07;;;;;;;7.35;4.72;;;6.50;95.00;;;;;;5100476;27;20071;-81
2022/01/23 14:53:36;;;;;;;7.70;5.30;;;6.50;95.10;;;;;;5100330;27;20122;-81
2022/01/23 14:56:04;;;;;;;8.75;5.32;;;6.50;95.10;;;;;;5116792;27;20035;-81
2022/01/23 14:58:32;;;;;;;12.05;5.20;;;6.50;95.20;;;;;;5099825;27;20126;-81
2022/01/23 15:00:58;;;;;;;11.75;5.10;;;6.50;95.10;;;;;;5083028;27;20490;-81
2022/01/23 15:03:26;;;;;;;7.93;5.28;;;6.50;95.10;;;;;;5116567;27;20090;-81
2022/01/23 15:05:52;;;;;;;7.88;4.68;;;6.40;95.00;;;;;;5116874;27;20039;-80
2022/01/23 15:08:21;;;;;;;7.30;5.10;;;6.40;95.10;;;;;;5116657;27;20096;-80
2022/01/23 15:10:48;;;;;;;13.10;5.63;;;6.40;94.90;;;;;;5100265;27;20039;-80
2022/01/23 15:13:15;;;;;;;8.43;5.10;;;6.40;94.80;;;;;;5116480;27;20051;-80
2022/01/23 15:15:42;;;;;;;9.57;5.90;;;6.40;95.00;;;;;;5116393;27;20051;-81
2022/01/23 15:18:08;;;;;;;8.63;6.03;;;6.30;94.90;;;;;;5116416;27;20042;-80
2022/01/23 15:20:36;;;;;;;12.02;7.13;;;6.30;95.10;;;;;;5116431;27;20046;-81
2022/01/23 15:23:04;;;;;;;10.63;7.35;;;6.30;95.10;;;;;;5099334;27;20538;-80
2022/01/23 15:25:30;;;;;;;9.30;6.07;;;6.30;95.00;;;;;;5116758;27;20413;-81
2022/01/23 15:27:56;;;;;;;9.35;6.53;;;6.30;94.90;;;;;;5116395;27;20035;-81
2022/01/23 15:30:24;;;;;;;6.78;4.70;;;6.20;94.80;;;;;;5099030;27;20036;-81
2022/01/23 15:32:51;;;;;;;8.93;5.30;;;6.20;94.90;;;;;;5082481;27;20046;-81
2022/01/23 15:35:19;;;;;;;11.52;6.70;;;6.20;95.00;;;;;;5099140;27;20054;-82
2022/01/23 15:37:45;;;;;;;8.35;5.97;;;6.20;94.90;;;;;;5099437;27;20035;-81
2022/01/23 15:40:13;;;;;;;10.63;6.03;;;6.20;95.00;;;;;;5082314;27;20505;-81
2022/01/23 15:42:40;;;;;;;8.80;5.57;;;6.20;95.00;;;;;;5115538;28;20113;-81
2022/01/23 15:45:07;;;;;;;8.02;5.43;;;6.20;95.10;;;;;;5115617;27;20065;-80
2022/01/23 15:47:33;;;;;;;9.73;5.50;;;6.10;94.90;;;;;;5114761;27;20075;-80
2022/01/23 15:49:58;;;;;;;8.15;5.20;;;6.10;95.00;;;;;;5132129;27;20093;-80
2022/01/23 15:52:27;;;;;;;10.23;6.03;;;6.10;95.00;;;;;;5114745;27;20039;-80
2022/01/23 15:54:52;;;;;;;10.35;6.30;;;6.10;95.00;;;;;;5093459;27;20048;-80
2022/01/23 15:57:18;;;;;;;12.77;6.50;;;6.10;94.80;;;;;;5098862;27;20072;-80
2022/01/23 15:59:52;;;;;;;9.65;6.63;;;6.10;94.80;;;;;;5097738;27;20430;-81
2022/01/23 16:02:19;;;;;;;8.57;6.20;;;6.10;94.80;;;;;;5098788;27;20043;-80
2022/01/23 16:04:48;;;;;;;10.10;7.05;;;6.10;94.90;;;;;;5098650;27;20481;-80
2022/01/23 16:07:16;;;;;;;11.50;7.00;;;6.10;94.90;;;;;;5115695;28;20031;-80
2022/01/23 16:09:46;;;;;;;7.82;5.30;;;6.00;94.90;;;;;;5098686;27;20038;-81
2022/01/23 16:12:13;;;;;;;11.98;6.10;;;6.00;94.80;;;;;;5098703;28;20096;-80
2022/01/23 16:14:39;;;;;;;8.35;6.38;;;6.00;94.80;;;;;;5082022;28;20428;-81
2022/01/23 16:17:05;;;;;;;10.70;8.20;;;6.10;94.90;;;;;;5115753;28;20122;-81
2022/01/23 16:19:31;;;;;;;8.95;5.80;;;6.00;94.90;;;;;;5115497;28;20138;-81
2022/01/23 16:21:58;;;;;;;9.48;5.88;;;6.10;95.00;;;;;;5115559;28;20122;-80
2022/01/23 16:24:25;;;;;;;8.73;5.55;;;6.00;94.70;;;;;;5098486;28;20076;-80
2022/01/23 16:26:52;;;;;;;9.90;6.32;;;6.00;94.90;;;;;;5098646;28;20491;-80
2022/01/23 16:29:19;;;;;;;8.70;6.10;;;6.00;94.80;;;;;;5115621;28;20043;-80
2022/01/23 16:31:50;;;;;;;7.82;5.88;;;6.00;94.80;;;;;;5115668;28;20372;-80
2022/01/23 16:34:16;;;;;;;10.15;5.65;;;6.00;94.90;;;;;;5115656;28;20044;-81
2022/01/23 16:36:42;;;;;;;14.07;7.38;;;6.00;94.80;;;;;;5115287;28;20091;-81
2022/01/23 16:39:09;;;;;;;9.13;6.45;;;6.10;94.80;;;;;;5098709;28;20050;-81
2022/01/23 16:41:36;;;;;;;10.57;7.80;;;6.00;94.70;;;;;;5081801;28;20076;-81
2022/01/23 16:44:03;;;;;;;10.57;6.55;;;6.00;94.90;;;;;;5098343;28;20043;-81